createdAt,value
2019-04-26T00:01:55.156Z,2.53
2019-04-26T00:04:25.956Z,2.73
2019-04-26T00:06:56.366Z,2.53
2019-04-26T00:09:34.417Z,2.67
2019-04-26T00:12:14.995Z,2.90
2019-04-26T00:14:57.355Z,3.30
2019-04-26T00:17:30.920Z,3.03
2019-04-26T00:20:01.570Z,4.40
2019-04-26T00:22:32.003Z,3.17
2019-04-26T00:25:02.409Z,2.80
2019-04-26T00:27:32.794Z,2.80
2019-04-26T00:30:04.574Z,2.87
2019-04-26T00:32:35.387Z,2.90
2019-04-26T00:35:12.925Z,3.00
2019-04-26T00:37:49.675Z,4.00
2019-04-26T00:40:25.143Z,3.40
2019-04-26T00:43:01.413Z,4.30
2019-04-26T00:45:34.899Z,3.50
2019-04-26T00:48:06.960Z,3.30
2019-04-26T00:50:41.043Z,3.37
2019-04-26T00:53:16.013Z,3.33
2019-04-26T00:55:49.662Z,3.70
2019-04-26T00:58:26.721Z,3.20
2019-04-26T01:01:05.200Z,2.73
2019-04-26T01:03:45.904Z,2.83
2019-04-26T01:06:29.587Z,3.03
2019-04-26T01:09:03.031Z,2.80
2019-04-26T01:11:37.655Z,2.50
2019-04-26T01:14:10.030Z,2.37
2019-04-26T01:16:42.279Z,2.50
2019-04-26T01:19:16.113Z,2.90
2019-04-26T01:21:55.535Z,2.03
2019-04-26T01:24:32.335Z,2.00
2019-04-26T01:27:05.588Z,2.53
2019-04-26T01:29:38.838Z,2.00
2019-04-26T01:32:15.165Z,1.77
2019-04-26T01:37:38.103Z,1.70
2019-04-26T01:40:14.486Z,1.60
2019-04-26T01:43:17.190Z,1.50
2019-04-26T01:46:00.837Z,1.60
2019-04-26T01:48:45.618Z,1.60
2019-04-26T01:51:21.741Z,1.77
2019-04-26T01:53:53.783Z,1.70
2019-04-26T01:56:29.269Z,1.90
2019-04-26T01:59:00.686Z,2.73
2019-04-26T02:01:50.442Z,2.10
2019-04-26T02:04:22.602Z,2.10
2019-04-26T02:06:53.420Z,2.50
2019-04-26T02:09:24.408Z,2.50
2019-04-26T02:11:54.756Z,4.87
2019-04-26T02:14:25.311Z,2.87
2019-04-26T02:16:55.990Z,2.53
2019-04-26T02:19:27.428Z,2.33
2019-04-26T02:22:16.845Z,2.40
2019-04-26T02:24:48.384Z,2.20
2019-04-26T02:27:26.142Z,2.20
2019-04-26T02:29:57.666Z,2.30
2019-04-26T02:32:29.437Z,2.33
2019-04-26T02:35:02.235Z,2.33
2019-04-26T02:37:34.606Z,2.40
2019-04-26T02:40:07.151Z,2.27
2019-04-26T02:42:43.169Z,2.23
2019-04-26T02:46:05.913Z,3.47
2019-04-26T02:48:54.542Z,1.80
2019-04-26T02:51:32.899Z,1.80
2019-04-26T02:54:45.071Z,1.73
2019-04-26T02:57:32.663Z,2.47
2019-04-26T03:00:08.388Z,2.07
2019-04-26T03:02:40.311Z,2.10
2019-04-26T03:05:11.701Z,2.50
2019-04-26T03:07:55.069Z,1.80
2019-04-26T03:10:47.691Z,1.90
2019-04-26T03:13:51.430Z,1.90
2019-04-26T03:16:46.441Z,1.97
2019-04-26T03:19:32.166Z,1.73
2019-04-26T03:22:29.294Z,2.70
2019-04-26T03:25:15.383Z,10.83
2019-04-26T03:28:25.756Z,2.37
2019-04-26T03:31:27.541Z,2.90
2019-04-26T03:34:24.574Z,3.47
2019-04-26T03:37:33.790Z,3.43
2019-04-26T03:40:38.182Z,7.63
2019-04-26T03:43:39.097Z,3.70
2019-04-26T03:46:41.167Z,3.50
2019-04-26T03:49:54.570Z,3.90
2019-04-26T03:52:55.773Z,4.70
2019-04-26T03:56:21.933Z,3.47
2019-04-26T03:59:20.831Z,4.13
2019-04-26T04:02:05.619Z,3.53
2019-04-26T04:04:49.304Z,4.90
2019-04-26T04:07:36.239Z,4.30
2019-04-26T04:10:02.402Z,6.70
2019-04-26T04:12:53.098Z,6.97
2019-04-26T04:15:30.548Z,6.30
2019-04-26T04:18:07.867Z,4.77
2019-04-26T04:21:14.570Z,5.37
2019-04-26T04:24:04.534Z,8.83
2019-04-26T04:26:58.922Z,18.33
2019-04-26T04:29:55.269Z,7.40
2019-04-26T04:32:53.501Z,7.70
2019-04-26T04:35:26.751Z,7.63
2019-04-26T04:38:09.120Z,8.40
2019-04-26T04:41:08.623Z,8.10
2019-04-26T04:43:48.770Z,9.50
2019-04-26T04:47:24.973Z,10.77
2019-04-26T04:50:07.897Z,6.80
2019-04-26T04:52:54.982Z,7.28
2019-04-26T04:55:42.811Z,8.30
2019-04-26T04:58:19.376Z,8.27
2019-04-26T05:01:55.532Z,10.67
2019-04-26T05:04:41.267Z,10.23
2019-04-26T05:08:06.832Z,10.00
2019-04-26T05:10:51.977Z,9.83
2019-04-26T05:13:35.443Z,7.87
2019-04-26T05:16:42.230Z,7.37
2019-04-26T05:19:44.236Z,9.23
2019-04-26T05:22:47.234Z,10.77
2019-04-26T05:26:16.783Z,8.30
2019-04-26T05:29:15.774Z,10.27
2019-04-26T05:31:54.662Z,9.53
2019-04-26T05:34:46.205Z,11.03
2019-04-26T05:38:00.671Z,7.43
2019-04-26T05:41:04.066Z,8.30
2019-04-26T05:44:02.070Z,8.50
2019-04-26T05:47:46.573Z,8.77
2019-04-26T05:51:20.882Z,8.90
2019-04-26T05:54:39.508Z,11.13
2019-04-26T05:57:37.199Z,7.87
2019-04-26T06:00:36.513Z,11.07
2019-04-26T06:03:41.089Z,9.73
2019-04-26T06:06:38.218Z,9.47
2019-04-26T06:10:03.097Z,7.93
2019-04-26T06:12:48.625Z,9.63
2019-04-26T06:15:30.726Z,8.90
2019-04-26T06:18:51.678Z,9.50
2019-04-26T06:21:53.706Z,9.00
2019-04-26T06:24:54.240Z,10.03
2019-04-26T06:27:54.549Z,7.57
2019-04-26T06:30:46.091Z,8.87
2019-04-26T06:33:43.718Z,8.33
2019-04-26T06:36:22.331Z,8.07
2019-04-26T06:39:25.071Z,7.93
2019-04-26T06:42:07.899Z,8.10
2019-04-26T06:45:26.850Z,6.03
2019-04-26T06:48:06.047Z,5.93
2019-04-26T06:50:43.956Z,5.80
2019-04-26T06:53:42.099Z,4.97
2019-04-26T06:56:36.728Z,5.07
2019-04-26T06:59:36.469Z,4.37
2019-04-26T07:02:31.891Z,5.63
2019-04-26T07:05:17.856Z,3.57
2019-04-26T07:08:35.390Z,4.57
2019-04-26T07:12:28.958Z,8.00
2019-04-26T07:15:30.708Z,3.47
2019-04-26T07:18:48.396Z,5.20
2019-04-26T07:21:34.379Z,6.23
2019-04-26T07:24:52.197Z,5.27
2019-04-26T07:28:03.758Z,5.80
2019-04-26T07:30:56.859Z,6.60
2019-04-26T07:34:11.911Z,7.00
2019-04-26T07:37:27.866Z,9.03
2019-04-26T07:40:46.222Z,8.60
2019-04-26T07:43:45.764Z,6.40
2019-04-26T07:46:46.623Z,6.40
2019-04-26T07:50:09.452Z,6.83
2019-04-26T07:53:37.342Z,5.80
2019-04-26T07:56:58.664Z,5.50
2019-04-26T08:00:08.723Z,6.50
2019-04-26T08:03:02.707Z,4.63
2019-04-26T08:05:53.366Z,4.50
2019-04-26T08:08:27.297Z,6.30
2019-04-26T08:11:12.644Z,6.40
2019-04-26T08:13:58.145Z,5.80
2019-04-26T08:16:49.904Z,6.93
2019-04-26T08:19:23.869Z,5.13
2019-04-26T08:22:11.168Z,4.77
2019-04-26T08:24:33.194Z,4.63
2019-04-26T08:27:26.166Z,4.43
2019-04-26T08:30:03.427Z,5.03
2019-04-26T08:32:36.335Z,5.17
2019-04-26T08:35:44.166Z,4.60
2019-04-26T08:38:19.491Z,2.80
2019-04-26T08:40:46.236Z,2.80
2019-04-26T08:43:35.822Z,3.00
2019-04-26T08:46:28.342Z,4.33
2019-04-26T08:49:24.142Z,3.33
2019-04-26T08:51:57.493Z,2.70
2019-04-26T08:54:32.670Z,2.50
2019-04-26T08:57:07.469Z,2.47
2019-04-26T08:59:43.035Z,2.30
2019-04-26T09:02:43.147Z,3.43
2019-04-26T09:05:36.557Z,2.83
2019-04-26T09:08:09.760Z,2.33
2019-04-26T09:10:43.151Z,2.90
2019-04-26T09:13:17.879Z,3.00
2019-04-26T09:16:20.835Z,2.77
2019-04-26T09:18:54.230Z,3.10
2019-04-26T09:21:32.514Z,2.93
2019-04-26T09:24:31.028Z,3.07
2019-04-26T09:27:20.990Z,5.07
2019-04-26T09:30:14.011Z,2.47
2019-04-26T09:32:58.362Z,2.40
2019-04-26T09:35:27.700Z,2.50
2019-04-26T09:37:59.629Z,3.70
2019-04-26T09:40:29.950Z,3.47
2019-04-26T09:43:14.843Z,3.20
2019-04-26T09:46:10.673Z,3.27
2019-04-26T09:48:51.233Z,3.97
2019-04-26T09:51:21.583Z,3.43
2019-04-26T09:53:51.923Z,2.93
2019-04-26T09:56:23.246Z,3.57
2019-04-26T09:58:53.588Z,2.93
2019-04-26T10:01:25.763Z,4.23
2019-04-26T10:03:55.872Z,3.50
2019-04-26T10:06:29.695Z,3.37
2019-04-26T10:08:58.315Z,3.07
2019-04-26T10:11:34.595Z,3.10
2019-04-26T10:14:09.689Z,2.80
2019-04-26T10:17:02.191Z,2.80
2019-04-26T10:19:41.530Z,2.60
2019-04-26T10:22:12.866Z,2.70
2019-04-26T10:24:43.162Z,3.30
2019-04-26T10:27:13.502Z,2.67
2019-04-26T10:29:43.871Z,2.90
2019-04-26T10:32:14.211Z,2.53
2019-04-26T10:34:47.415Z,2.40
2019-04-26T10:37:16.495Z,2.67
2019-04-26T10:39:46.791Z,4.73
2019-04-26T10:42:17.838Z,2.80
2019-04-26T10:44:48.199Z,1.90
2019-04-26T10:47:18.539Z,2.10
2019-04-26T10:49:49.051Z,2.00
2019-04-26T10:52:45.537Z,2.33
2019-04-26T10:55:46.453Z,1.77
2019-04-26T10:58:36.182Z,2.50
2019-04-26T11:01:12.677Z,1.20
2019-04-26T11:03:43.047Z,1.40
2019-04-26T11:06:13.360Z,1.67
2019-04-26T11:08:43.696Z,1.40
2019-04-26T11:11:14.009Z,1.90
2019-04-26T11:13:44.343Z,1.47
2019-04-26T11:16:14.633Z,1.50
2019-04-26T11:18:44.959Z,1.70
2019-04-26T11:21:16.263Z,1.80
2019-04-26T11:24:00.794Z,1.90
2019-04-26T11:26:37.724Z,2.10
2019-04-26T11:29:28.811Z,1.93
2019-04-26T11:32:13.432Z,1.70
2019-04-26T11:35:02.740Z,1.70
2019-04-26T11:37:46.429Z,2.57
2019-04-26T11:40:30.190Z,1.70
2019-04-26T11:43:15.763Z,1.47
2019-04-26T11:46:04.504Z,1.77
2019-04-26T11:48:44.073Z,1.50
2019-04-26T11:51:40.463Z,2.67
2019-04-26T11:54:30.098Z,2.20
2019-04-26T11:57:12.117Z,2.30
2019-04-26T12:00:01.418Z,1.73
2019-04-26T12:02:39.116Z,1.97
2019-04-26T12:05:34.942Z,1.60
2019-04-26T12:08:08.020Z,2.33
2019-04-26T12:10:40.453Z,2.60
2019-04-26T12:13:11.451Z,1.67
2019-04-26T12:15:43.671Z,1.33
2019-04-26T12:18:13.806Z,1.40
2019-04-26T12:20:44.165Z,1.50
2019-04-26T12:23:20.360Z,1.70
2019-04-26T12:25:48.283Z,1.47
2019-04-26T12:28:18.427Z,1.43
2019-04-26T12:30:48.771Z,1.50
2019-04-26T12:33:20.039Z,1.50
2019-04-26T12:35:56.904Z,1.50
2019-04-26T12:38:24.111Z,1.60
2019-04-26T12:40:54.322Z,1.83
2019-04-26T12:43:26.115Z,3.10
2019-04-26T12:46:22.515Z,1.57
2019-04-26T12:48:51.347Z,1.70
2019-04-26T12:51:23.015Z,1.67
2019-04-26T12:53:53.451Z,1.70
2019-04-26T12:56:26.740Z,2.07
2019-04-26T12:58:55.785Z,2.13
2019-04-26T13:01:26.047Z,2.47
2019-04-26T13:04:10.068Z,1.93
2019-04-26T13:06:45.667Z,2.80
2019-04-26T13:09:17.414Z,1.87
2019-04-26T13:12:06.663Z,2.30
2019-04-26T13:14:47.157Z,2.73
2019-04-26T13:17:20.099Z,2.60
2019-04-26T13:19:54.014Z,1.93
2019-04-26T13:22:22.366Z,1.73
2019-04-26T13:24:52.712Z,1.80
2019-04-26T13:27:22.999Z,1.70
2019-04-26T13:30:01.682Z,1.70
2019-04-26T13:32:25.294Z,2.03
2019-04-26T13:34:55.629Z,2.40
2019-04-26T13:37:25.933Z,2.80
2019-04-26T13:39:57.009Z,1.60
2019-04-26T13:42:28.402Z,1.60
2019-04-26T13:45:38.746Z,1.80
2019-04-26T13:48:28.072Z,3.57
2019-04-26T13:51:05.648Z,2.20
2019-04-26T13:53:35.425Z,1.90
2019-04-26T13:56:05.872Z,1.90
2019-04-26T13:58:36.171Z,2.70
2019-04-26T14:01:08.361Z,4.03
2019-04-26T14:03:38.669Z,2.23
2019-04-26T14:06:08.994Z,1.90
2019-04-26T14:08:39.347Z,2.00
2019-04-26T14:11:09.697Z,2.30
2019-04-26T14:13:39.997Z,1.97
2019-04-26T14:16:10.375Z,1.90
2019-04-26T14:18:40.850Z,1.97
2019-04-26T14:21:11.134Z,2.63
2019-04-26T14:24:06.235Z,2.17
2019-04-26T14:26:39.844Z,1.90
2019-04-26T14:29:10.819Z,1.90
2019-04-26T14:31:41.229Z,1.90
2019-04-26T14:34:12.152Z,1.90
2019-04-26T14:36:43.829Z,2.23
2019-04-26T14:39:17.489Z,2.73
2019-04-26T14:41:46.433Z,3.40
2019-04-26T14:44:17.941Z,2.37
2019-04-26T14:46:49.264Z,2.10
2019-04-26T14:49:23.438Z,2.00
2019-04-26T14:51:55.952Z,2.70
2019-04-26T14:54:24.215Z,1.90
2019-04-26T14:56:54.577Z,1.80
2019-04-26T14:59:47.148Z,1.90
2019-04-26T15:02:36.594Z,3.33
2019-04-26T15:05:19.483Z,1.80
2019-04-26T15:07:51.982Z,2.50
2019-04-26T15:10:23.766Z,2.03
2019-04-26T15:13:11.500Z,2.20
2019-04-26T15:15:33.201Z,1.90
2019-04-26T15:18:00.383Z,1.87
2019-04-26T15:20:32.622Z,2.53
2019-04-26T15:23:03.637Z,2.07
2019-04-26T15:25:36.681Z,1.90
2019-04-26T15:28:12.015Z,2.20
2019-04-26T15:30:43.203Z,2.10
2019-04-26T15:33:12.820Z,2.37
2019-04-26T15:35:43.285Z,2.30
2019-04-26T15:38:13.625Z,2.20
2019-04-26T15:41:14.293Z,2.10
2019-04-26T15:44:06.284Z,2.20
2019-04-26T15:47:05.964Z,2.40
2019-04-26T15:49:46.079Z,2.50
2019-04-26T15:52:16.420Z,2.60
2019-04-26T15:54:46.736Z,2.20
2019-04-26T15:57:17.168Z,2.00
2019-04-26T15:59:48.117Z,2.40
2019-04-26T16:02:23.005Z,2.20
2019-04-26T16:04:54.277Z,2.63
2019-04-26T16:07:27.676Z,2.57
2019-04-26T16:09:57.398Z,4.87
2019-04-26T16:12:27.406Z,2.07
2019-04-26T16:14:57.832Z,4.13
2019-04-26T16:17:28.243Z,2.10
2019-04-26T16:20:00.084Z,3.70
2019-04-26T16:22:32.778Z,2.10
2019-04-26T16:25:05.290Z,2.00
2019-04-26T16:27:37.075Z,2.33
2019-04-26T16:30:28.488Z,3.10
2019-04-26T16:33:18.187Z,2.87
2019-04-26T16:35:49.133Z,2.63
2019-04-26T16:38:35.802Z,2.83
2019-04-26T16:41:06.912Z,3.17
2019-04-26T16:43:40.634Z,2.53
2019-04-26T16:46:14.647Z,2.73
2019-04-26T16:48:44.222Z,2.30
2019-04-26T16:51:14.431Z,2.30
2019-04-26T16:54:06.798Z,2.60
2019-04-26T16:56:36.868Z,2.30
2019-04-26T16:59:27.499Z,2.30
2019-04-26T17:02:10.531Z,2.00
2019-04-26T17:05:14.175Z,1.93
2019-04-26T17:07:39.460Z,2.20
2019-04-26T17:10:29.647Z,2.10
2019-04-26T17:13:13.207Z,2.40
2019-04-26T17:16:03.320Z,3.10
2019-04-26T17:18:40.518Z,2.23
2019-04-26T17:21:34.735Z,2.80
2019-04-26T17:24:24.147Z,2.97
2019-04-26T17:26:58.687Z,2.60
2019-04-26T17:29:31.865Z,2.10
2019-04-26T17:32:03.909Z,1.90
2019-04-26T17:34:34.403Z,2.07
2019-04-26T17:37:09.926Z,1.87
2019-04-26T17:39:36.739Z,2.30
2019-04-26T17:42:07.073Z,2.13
2019-04-26T17:44:38.038Z,1.90
2019-04-26T17:47:09.042Z,2.00
2019-04-26T17:49:43.782Z,2.43
2019-04-26T17:52:12.352Z,2.77
2019-04-26T17:54:48.823Z,2.90
2019-04-26T17:57:14.873Z,2.00
2019-04-26T17:59:49.084Z,2.20
2019-04-26T18:02:31.214Z,4.63
2019-04-26T18:05:00.218Z,2.60
2019-04-26T18:07:39.585Z,3.90
2019-04-26T18:09:56.867Z,2.30
2019-04-26T18:12:25.766Z,2.10
2019-04-26T18:14:56.106Z,2.33
2019-04-26T18:17:40.105Z,4.53
2019-04-26T18:20:28.297Z,3.43
2019-04-26T18:23:03.481Z,4.70
2019-04-26T18:25:34.393Z,3.27
2019-04-26T18:28:08.698Z,4.60
2019-04-26T18:30:40.379Z,2.07
2019-04-26T18:33:13.327Z,4.37
2019-04-26T18:35:45.159Z,2.30
2019-04-26T18:38:15.363Z,3.43
2019-04-26T18:40:59.845Z,6.23
2019-04-26T18:43:23.921Z,3.73
2019-04-26T18:45:51.314Z,2.53
2019-04-26T18:48:23.507Z,2.50
2019-04-26T18:50:55.275Z,2.20
2019-04-26T18:53:53.631Z,5.97
2019-04-26T18:56:24.072Z,3.60
2019-04-26T18:59:03.078Z,7.43
2019-04-26T19:01:47.021Z,4.70
2019-04-26T19:04:37.331Z,3.73
2019-04-26T19:07:16.032Z,4.07
2019-04-26T19:10:06.080Z,2.30
2019-04-26T19:12:44.556Z,4.17
2019-04-26T19:15:43.378Z,3.00
2019-04-26T19:18:33.823Z,2.83
2019-04-26T19:21:38.964Z,3.17
2019-04-26T19:24:19.509Z,2.70
2019-04-26T19:27:06.122Z,3.97
2019-04-26T19:29:36.494Z,3.70
2019-04-26T19:32:07.417Z,3.50
2019-04-26T19:34:37.991Z,3.00
2019-04-26T19:37:09.936Z,5.33
2019-04-26T19:39:40.378Z,4.77
2019-04-26T19:42:11.791Z,4.00
2019-04-26T19:44:42.219Z,3.13
2019-04-26T19:47:29.984Z,4.83
2019-04-26T19:50:24.717Z,3.90
2019-04-26T19:53:05.747Z,5.13
2019-04-26T19:55:47.366Z,3.50
2019-04-26T19:58:20.517Z,7.70
2019-04-26T20:00:52.442Z,6.03
2019-04-26T20:03:22.801Z,5.17
2019-04-26T20:05:53.147Z,5.33
2019-04-26T20:08:24.526Z,4.03
2019-04-26T20:10:54.934Z,4.70
2019-04-26T20:13:25.329Z,5.63
2019-04-26T20:15:57.543Z,5.43
2019-04-26T20:18:27.600Z,4.90
2019-04-26T20:20:57.935Z,4.97
2019-04-26T20:23:28.372Z,4.00
2019-04-26T20:26:00.948Z,4.47
2019-04-26T20:28:34.265Z,4.13
2019-04-26T20:31:23.318Z,4.47
2019-04-26T20:33:53.603Z,4.77
2019-04-26T20:36:23.964Z,4.10
2019-04-26T20:38:54.358Z,3.80
2019-04-26T20:41:24.820Z,5.20
2019-04-26T20:44:05.110Z,4.40
2019-04-26T20:46:29.743Z,4.20
2019-04-26T20:49:01.479Z,4.43
2019-04-26T20:51:32.304Z,5.00
2019-04-26T20:54:03.866Z,4.97
2019-04-26T20:56:34.338Z,5.63
2019-04-26T20:59:04.671Z,4.60
2019-04-26T21:01:35.071Z,5.03
2019-04-26T21:04:05.467Z,4.50
2019-04-26T21:06:37.022Z,4.67
2019-04-26T21:09:11.621Z,4.80
2019-04-26T21:11:42.179Z,5.10
2019-04-26T21:14:12.553Z,6.03
2019-04-26T21:16:43.677Z,5.87
2019-04-26T21:19:18.946Z,5.30
2019-04-26T21:21:48.212Z,5.20
2019-04-26T21:24:21.386Z,5.20
2019-04-26T21:27:16.511Z,5.67
2019-04-26T21:30:03.320Z,5.83
2019-04-26T21:32:59.162Z,5.40
2019-04-26T21:35:35.597Z,6.00
2019-04-26T21:38:14.768Z,4.77
2019-04-26T21:40:50.134Z,6.40
2019-04-26T21:43:20.479Z,5.77
2019-04-26T21:45:50.830Z,5.03
2019-04-26T21:48:21.239Z,5.83
2019-04-26T21:50:51.519Z,7.10
2019-04-26T21:53:21.855Z,5.90
2019-04-26T21:55:52.672Z,5.80
2019-04-26T21:58:24.651Z,6.67
2019-04-26T22:01:11.055Z,5.00
2019-04-26T22:03:47.357Z,6.27
2019-04-26T22:06:19.783Z,5.43
2019-04-26T22:08:57.284Z,4.87
2019-04-26T22:11:25.445Z,4.97
2019-04-26T22:14:13.226Z,5.23
2019-04-26T22:17:02.041Z,4.87
2019-04-26T22:19:53.736Z,4.63
2019-04-26T22:22:37.466Z,5.07
2019-04-26T22:25:09.881Z,4.33
2019-04-26T22:27:43.656Z,4.73
2019-04-26T22:30:22.707Z,5.23
2019-04-26T22:32:58.122Z,4.33
2019-04-26T22:35:25.527Z,3.73
2019-04-26T22:37:55.876Z,4.00
2019-04-26T22:40:26.181Z,3.37
2019-04-26T22:43:05.453Z,5.20
2019-04-26T22:45:48.985Z,4.07
2019-04-26T22:48:25.951Z,3.50
2019-04-26T22:50:59.517Z,3.53
2019-04-26T22:53:32.855Z,3.40
2019-04-26T22:56:04.905Z,5.77
2019-04-26T22:58:35.276Z,3.70
2019-04-26T23:01:06.494Z,3.93
2019-04-26T23:03:41.223Z,3.70
2019-04-26T23:06:11.632Z,3.60
2019-04-26T23:08:44.192Z,4.20
2019-04-26T23:11:15.177Z,3.73
2019-04-26T23:13:55.700Z,3.50
2019-04-26T23:17:05.701Z,3.73
2019-04-26T23:19:36.693Z,3.83
2019-04-26T23:22:08.737Z,4.60
2019-04-26T23:24:39.072Z,3.40
2019-04-26T23:27:09.465Z,4.57
2019-04-26T23:29:39.871Z,4.03
2019-04-26T23:32:13.590Z,5.30
2019-04-26T23:34:42.123Z,3.40
2019-04-26T23:37:13.248Z,4.00
2019-04-26T23:39:49.627Z,3.37
2019-04-26T23:42:16.658Z,4.83
2019-04-26T23:44:47.930Z,2.60
2019-04-26T23:47:22.374Z,2.87
2019-04-26T23:49:53.839Z,3.67
2019-04-26T23:52:24.306Z,4.93
2019-04-26T23:54:54.269Z,2.50
2019-04-26T23:57:27.465Z,2.60
